sensor_id;sensor_type;location;lat;lon;timestamp;temperature;humidity
10788;DHT22;5446;50.826;4.380;2022-12-18T00:01:04;-2.80;99.90
10788;DHT22;5446;50.826;4.380;2022-12-18T00:03:35;-2.80;99.90
10788;DHT22;5446;50.826;4.380;2022-12-18T00:06:01;-2.90;99.90
10788;DHT22;5446;50.826;4.380;2022-12-18T00:08:27;-2.90;99.90
10788;DHT22;5446;50.826;4.380;2022-12-18T00:10:53;-2.90;99.90
10788;DHT22;5446;50.826;4.380;2022-12-18T00:13:19;-3.00;99.90
10788;DHT22;5446;50.826;4.380;2022-12-18T00:15:45;-3.00;99.90
10788;DHT22;5446;50.826;4.380;2022-12-18T00:18:11;-3.00;99.90
10788;DHT22;5446;50.826;4.380;2022-12-18T00:20:38;-3.00;99.90
10788;DHT22;5446;50.826;4.380;2022-12-18T00:23:04;-3.00;99.90
10788;DHT22;5446;50.826;4.380;2022-12-18T00:25:33;-3.00;99.90
10788;DHT22;5446;50.826;4.380;2022-12-18T00:28:00;-3.00;99.90
10788;DHT22;5446;50.826;4.380;2022-12-18T00:30:26;-3.00;99.90
10788;DHT22;5446;50.826;4.380;2022-12-18T00:32:51;-3.10;99.90
10788;DHT22;5446;50.826;4.380;2022-12-18T00:35:17;-3.10;99.90
10788;DHT22;5446;50.826;4.380;2022-12-18T00:37:43;-3.10;99.90
10788;DHT22;5446;50.826;4.380;2022-12-18T00:40:15;-3.10;99.90
10788;DHT22;5446;50.826;4.380;2022-12-18T00:42:40;-3.10;99.90
10788;DHT22;5446;50.826;4.380;2022-12-18T00:45:25;-3.20;99.90
10788;DHT22;5446;50.826;4.380;2022-12-18T00:47:51;-3.20;99.90
10788;DHT22;5446;50.826;4.380;2022-12-18T00:50:18;-3.20;99.90
10788;DHT22;5446;50.826;4.380;2022-12-18T00:52:44;-3.20;99.90
10788;DHT22;5446;50.826;4.380;2022-12-18T00:55:10;-3.20;99.90
10788;DHT22;5446;50.826;4.380;2022-12-18T00:57:37;-3.20;99.90
10788;DHT22;5446;50.826;4.380;2022-12-18T01:00:05;-3.20;99.90
10788;DHT22;5446;50.826;4.380;2022-12-18T01:02:31;-3.20;99.90
10788;DHT22;5446;50.826;4.380;2022-12-18T01:04:57;-3.20;99.90
10788;DHT22;5446;50.826;4.380;2022-12-18T01:07:22;-3.20;99.90
10788;DHT22;5446;50.826;4.380;2022-12-18T01:09:48;-3.20;99.90
10788;DHT22;5446;50.826;4.380;2022-12-18T01:12:14;-3.20;99.90
10788;DHT22;5446;50.826;4.380;2022-12-18T01:14:40;-3.20;99.90
10788;DHT22;5446;50.826;4.380;2022-12-18T01:17:05;-3.20;99.90
10788;DHT22;5446;50.826;4.380;2022-12-18T01:19:31;-3.20;99.90
10788;DHT22;5446;50.826;4.380;2022-12-18T01:21:57;-3.20;99.90
10788;DHT22;5446;50.826;4.380;2022-12-18T01:24:23;-3.20;99.90
10788;DHT22;5446;50.826;4.380;2022-12-18T01:26:49;-3.20;99.90
10788;DHT22;5446;50.826;4.380;2022-12-18T01:29:14;-3.20;99.90
10788;DHT22;5446;50.826;4.380;2022-12-18T01:31:40;-3.30;99.90
10788;DHT22;5446;50.826;4.380;2022-12-18T01:34:06;-3.20;99.90
10788;DHT22;5446;50.826;4.380;2022-12-18T01:36:37;-3.30;99.90
10788;DHT22;5446;50.826;4.380;2022-12-18T01:39:12;-3.30;99.90
10788;DHT22;5446;50.826;4.380;2022-12-18T01:41:39;-3.30;99.90
10788;DHT22;5446;50.826;4.380;2022-12-18T01:44:57;-3.30;99.90
10788;DHT22;5446;50.826;4.380;2022-12-18T01:47:39;-3.30;99.90
10788;DHT22;5446;50.826;4.380;2022-12-18T01:52:37;-3.40;99.90
10788;DHT22;5446;50.826;4.380;2022-12-18T01:55:06;-3.30;99.90
10788;DHT22;5446;50.826;4.380;2022-12-18T01:57:34;-3.40;99.90
10788;DHT22;5446;50.826;4.380;2022-12-18T02:00:04;-3.30;99.90
10788;DHT22;5446;50.826;4.380;2022-12-18T02:02:31;-3.40;99.90
10788;DHT22;5446;50.826;4.380;2022-12-18T02:04:58;-3.40;99.90
10788;DHT22;5446;50.826;4.380;2022-12-18T02:10:22;-3.50;99.90
10788;DHT22;5446;50.826;4.380;2022-12-18T02:15:41;-3.50;99.90
10788;DHT22;5446;50.826;4.380;2022-12-18T02:18:24;-3.50;99.90
10788;DHT22;5446;50.826;4.380;2022-12-18T02:21:09;-3.50;99.90
10788;DHT22;5446;50.826;4.380;2022-12-18T02:26:33;-3.60;99.90
10788;DHT22;5446;50.826;4.380;2022-12-18T02:29:04;-3.60;99.90
10788;DHT22;5446;50.826;4.380;2022-12-18T02:31:40;-3.60;99.90
10788;DHT22;5446;50.826;4.380;2022-12-18T02:34:09;-3.60;99.90
10788;DHT22;5446;50.826;4.380;2022-12-18T02:36:39;-3.50;99.90
10788;DHT22;5446;50.826;4.380;2022-12-18T02:39:09;-3.50;99.90
10788;DHT22;5446;50.826;4.380;2022-12-18T02:41:36;-3.50;99.90
10788;DHT22;5446;50.826;4.380;2022-12-18T02:44:07;-3.50;99.90
10788;DHT22;5446;50.826;4.380;2022-12-18T02:46:40;-3.50;99.90
10788;DHT22;5446;50.826;4.380;2022-12-18T03:00:23;-3.60;99.90
10788;DHT22;5446;50.826;4.380;2022-12-18T03:05:37;-3.70;99.90
10788;DHT22;5446;50.826;4.380;2022-12-18T03:08:26;-3.70;99.90
10788;DHT22;5446;50.826;4.380;2022-12-18T03:11:01;-3.70;99.90
10788;DHT22;5446;50.826;4.380;2022-12-18T03:13:54;-3.60;99.90
10788;DHT22;5446;50.826;4.380;2022-12-18T03:16:25;-3.60;99.90
10788;DHT22;5446;50.826;4.380;2022-12-18T03:19:08;-3.60;99.90
10788;DHT22;5446;50.826;4.380;2022-12-18T03:21:54;-3.60;99.90
10788;DHT22;5446;50.826;4.380;2022-12-18T03:24:21;-3.60;99.90
10788;DHT22;5446;50.826;4.380;2022-12-18T03:26:52;-3.60;99.90
10788;DHT22;5446;50.826;4.380;2022-12-18T03:29:25;-3.60;99.90
10788;DHT22;5446;50.826;4.380;2022-12-18T03:32:01;-3.60;99.90
10788;DHT22;5446;50.826;4.380;2022-12-18T03:34:33;-3.60;99.90
10788;DHT22;5446;50.826;4.380;2022-12-18T03:37:00;-3.60;99.90
10788;DHT22;5446;50.826;4.380;2022-12-18T03:39:26;-3.60;99.90
10788;DHT22;5446;50.826;4.380;2022-12-18T03:42:07;-3.60;99.90
10788;DHT22;5446;50.826;4.380;2022-12-18T03:44:44;-3.60;99.90
10788;DHT22;5446;50.826;4.380;2022-12-18T03:52:57;-3.70;99.90
10788;DHT22;5446;50.826;4.380;2022-12-18T03:55:27;-3.70;99.90
10788;DHT22;5446;50.826;4.380;2022-12-18T03:57:58;-3.60;99.90
10788;DHT22;5446;50.826;4.380;2022-12-18T04:00:25;-3.70;99.90
10788;DHT22;5446;50.826;4.380;2022-12-18T04:02:53;-3.70;99.90
10788;DHT22;5446;50.826;4.380;2022-12-18T04:05:20;-3.60;99.90
10788;DHT22;5446;50.826;4.380;2022-12-18T04:07:48;-3.70;99.90
10788;DHT22;5446;50.826;4.380;2022-12-18T04:10:16;-3.70;99.90
10788;DHT22;5446;50.826;4.380;2022-12-18T04:12:42;-3.70;99.90
10788;DHT22;5446;50.826;4.380;2022-12-18T04:15:09;-3.70;99.90
10788;DHT22;5446;50.826;4.380;2022-12-18T04:17:35;-3.70;99.90
10788;DHT22;5446;50.826;4.380;2022-12-18T04:20:02;-3.80;99.90
10788;DHT22;5446;50.826;4.380;2022-12-18T04:22:28;-3.80;99.90
10788;DHT22;5446;50.826;4.380;2022-12-18T04:24:53;-3.80;99.90
10788;DHT22;5446;50.826;4.380;2022-12-18T04:27:19;-3.90;99.90
10788;DHT22;5446;50.826;4.380;2022-12-18T04:29:45;-3.90;99.90
10788;DHT22;5446;50.826;4.380;2022-12-18T04:32:11;-3.90;99.90
10788;DHT22;5446;50.826;4.380;2022-12-18T04:34:36;-3.90;99.90
10788;DHT22;5446;50.826;4.380;2022-12-18T04:37:03;-3.90;99.90
10788;DHT22;5446;50.826;4.380;2022-12-18T04:39:28;-4.00;99.90
10788;DHT22;5446;50.826;4.380;2022-12-18T04:41:54;-4.00;99.90
10788;DHT22;5446;50.826;4.380;2022-12-18T04:44:20;-4.00;99.90
10788;DHT22;5446;50.826;4.380;2022-12-18T04:46:46;-4.00;99.90
10788;DHT22;5446;50.826;4.380;2022-12-18T04:49:12;-4.00;99.90
10788;DHT22;5446;50.826;4.380;2022-12-18T04:51:38;-4.10;99.90
10788;DHT22;5446;50.826;4.380;2022-12-18T04:54:04;-4.00;99.90
10788;DHT22;5446;50.826;4.380;2022-12-18T04:56:31;-4.00;99.90
10788;DHT22;5446;50.826;4.380;2022-12-18T04:58:57;-4.00;99.90
10788;DHT22;5446;50.826;4.380;2022-12-18T05:01:23;-4.10;99.90
10788;DHT22;5446;50.826;4.380;2022-12-18T05:03:50;-4.10;99.90
10788;DHT22;5446;50.826;4.380;2022-12-18T05:06:16;-4.00;99.90
10788;DHT22;5446;50.826;4.380;2022-12-18T05:08:41;-4.00;99.90
10788;DHT22;5446;50.826;4.380;2022-12-18T05:11:12;-4.10;99.90
10788;DHT22;5446;50.826;4.380;2022-12-18T05:13:41;-4.10;99.90
10788;DHT22;5446;50.826;4.380;2022-12-18T05:16:07;-4.10;99.90
10788;DHT22;5446;50.826;4.380;2022-12-18T05:18:33;-4.10;99.90
10788;DHT22;5446;50.826;4.380;2022-12-18T05:20:59;-4.10;99.90
10788;DHT22;5446;50.826;4.380;2022-12-18T05:23:25;-4.10;99.90
10788;DHT22;5446;50.826;4.380;2022-12-18T05:25:57;-4.10;99.90
10788;DHT22;5446;50.826;4.380;2022-12-18T05:28:24;-4.10;99.90
10788;DHT22;5446;50.826;4.380;2022-12-18T05:30:53;-4.10;99.90
10788;DHT22;5446;50.826;4.380;2022-12-18T05:33:21;-4.10;99.90
10788;DHT22;5446;50.826;4.380;2022-12-18T05:35:59;-4.00;99.90
10788;DHT22;5446;50.826;4.380;2022-12-18T05:38:27;-4.00;99.90
10788;DHT22;5446;50.826;4.380;2022-12-18T05:40:53;-4.00;99.90
10788;DHT22;5446;50.826;4.380;2022-12-18T05:43:23;-3.90;99.90
10788;DHT22;5446;50.826;4.380;2022-12-18T05:45:49;-3.90;99.90
10788;DHT22;5446;50.826;4.380;2022-12-18T05:48:16;-3.90;99.90
10788;DHT22;5446;50.826;4.380;2022-12-18T05:50:43;-3.90;99.90
10788;DHT22;5446;50.826;4.380;2022-12-18T05:53:11;-3.80;99.90
10788;DHT22;5446;50.826;4.380;2022-12-18T05:55:38;-3.80;99.90
10788;DHT22;5446;50.826;4.380;2022-12-18T05:58:05;-3.90;99.90
10788;DHT22;5446;50.826;4.380;2022-12-18T06:00:33;-3.80;99.90
10788;DHT22;5446;50.826;4.380;2022-12-18T06:03:00;-3.90;99.90
10788;DHT22;5446;50.826;4.380;2022-12-18T06:05:27;-3.90;99.90
10788;DHT22;5446;50.826;4.380;2022-12-18T06:07:53;-4.00;99.90
10788;DHT22;5446;50.826;4.380;2022-12-18T06:10:19;-4.00;99.90
10788;DHT22;5446;50.826;4.380;2022-12-18T06:12:45;-4.10;99.90
10788;DHT22;5446;50.826;4.380;2022-12-18T06:15:11;-4.20;99.90
10788;DHT22;5446;50.826;4.380;2022-12-18T06:17:37;-4.20;99.90
10788;DHT22;5446;50.826;4.380;2022-12-18T06:20:04;-4.20;99.90
10788;DHT22;5446;50.826;4.380;2022-12-18T06:22:33;-4.10;99.90
10788;DHT22;5446;50.826;4.380;2022-12-18T06:25:00;-4.10;99.90
10788;DHT22;5446;50.826;4.380;2022-12-18T06:27:26;-4.10;99.90
10788;DHT22;5446;50.826;4.380;2022-12-18T06:29:51;-4.00;99.90
10788;DHT22;5446;50.826;4.380;2022-12-18T06:32:17;-4.00;99.90
10788;DHT22;5446;50.826;4.380;2022-12-18T06:34:43;-4.00;99.90
10788;DHT22;5446;50.826;4.380;2022-12-18T06:37:09;-4.00;99.90
10788;DHT22;5446;50.826;4.380;2022-12-18T06:39:34;-4.00;99.90
10788;DHT22;5446;50.826;4.380;2022-12-18T06:42:00;-4.00;99.90
10788;DHT22;5446;50.826;4.380;2022-12-18T06:44:26;-4.00;99.90
10788;DHT22;5446;50.826;4.380;2022-12-18T06:46:52;-4.00;99.90
10788;DHT22;5446;50.826;4.380;2022-12-18T06:49:17;-4.00;99.90
10788;DHT22;5446;50.826;4.380;2022-12-18T06:51:43;-4.00;99.90
10788;DHT22;5446;50.826;4.380;2022-12-18T06:54:09;-4.00;99.90
10788;DHT22;5446;50.826;4.380;2022-12-18T06:56:35;-4.00;99.90
10788;DHT22;5446;50.826;4.380;2022-12-18T06:59:00;-4.00;99.90
10788;DHT22;5446;50.826;4.380;2022-12-18T07:01:28;-4.00;99.90
10788;DHT22;5446;50.826;4.380;2022-12-18T07:03:55;-4.00;99.90
10788;DHT22;5446;50.826;4.380;2022-12-18T07:06:23;-4.00;99.90
10788;DHT22;5446;50.826;4.380;2022-12-18T07:08:51;-4.00;99.90
10788;DHT22;5446;50.826;4.380;2022-12-18T07:11:18;-3.90;99.90
10788;DHT22;5446;50.826;4.380;2022-12-18T07:13:45;-3.90;99.90
10788;DHT22;5446;50.826;4.380;2022-12-18T07:16:15;-4.00;99.90
10788;DHT22;5446;50.826;4.380;2022-12-18T07:18:41;-4.00;99.90
10788;DHT22;5446;50.826;4.380;2022-12-18T07:21:11;-4.00;99.90
10788;DHT22;5446;50.826;4.380;2022-12-18T07:23:38;-4.00;99.90
10788;DHT22;5446;50.826;4.380;2022-12-18T07:26:08;-4.00;99.90
10788;DHT22;5446;50.826;4.380;2022-12-18T07:28:36;-4.00;99.90
10788;DHT22;5446;50.826;4.380;2022-12-18T07:31:07;-4.00;99.90
10788;DHT22;5446;50.826;4.380;2022-12-18T07:33:33;-4.00;99.90
10788;DHT22;5446;50.826;4.380;2022-12-18T07:36:04;-4.00;99.90
10788;DHT22;5446;50.826;4.380;2022-12-18T07:38:31;-4.00;99.90
10788;DHT22;5446;50.826;4.380;2022-12-18T07:41:11;-4.00;99.90
10788;DHT22;5446;50.826;4.380;2022-12-18T07:43:38;-4.00;99.90
10788;DHT22;5446;50.826;4.380;2022-12-18T07:46:04;-4.00;99.90
10788;DHT22;5446;50.826;4.380;2022-12-18T07:48:30;-4.00;99.90
10788;DHT22;5446;50.826;4.380;2022-12-18T07:51:04;-3.90;99.90
10788;DHT22;5446;50.826;4.380;2022-12-18T07:53:31;-3.90;99.90
10788;DHT22;5446;50.826;4.380;2022-12-18T07:55:58;-3.90;99.90
10788;DHT22;5446;50.826;4.380;2022-12-18T07:58:25;-3.80;99.90
10788;DHT22;5446;50.826;4.380;2022-12-18T08:00:50;-3.80;99.90
10788;DHT22;5446;50.826;4.380;2022-12-18T08:03:17;-3.80;99.90
10788;DHT22;5446;50.826;4.380;2022-12-18T08:05:43;-3.70;99.90
10788;DHT22;5446;50.826;4.380;2022-12-18T08:08:09;-3.60;99.90
10788;DHT22;5446;50.826;4.380;2022-12-18T08:10:35;-3.60;99.90
10788;DHT22;5446;50.826;4.380;2022-12-18T08:13:01;-3.60;99.90
10788;DHT22;5446;50.826;4.380;2022-12-18T08:15:26;-3.60;99.90
10788;DHT22;5446;50.826;4.380;2022-12-18T08:17:52;-3.50;99.90
10788;DHT22;5446;50.826;4.380;2022-12-18T08:20:21;-3.40;99.90
10788;DHT22;5446;50.826;4.380;2022-12-18T08:22:47;-3.40;99.90
10788;DHT22;5446;50.826;4.380;2022-12-18T08:25:12;-3.30;99.90
10788;DHT22;5446;50.826;4.380;2022-12-18T08:27:38;-3.30;99.90
10788;DHT22;5446;50.826;4.380;2022-12-18T08:30:04;-3.20;99.90
10788;DHT22;5446;50.826;4.380;2022-12-18T08:32:31;-3.20;99.90
10788;DHT22;5446;50.826;4.380;2022-12-18T08:34:58;-3.10;99.90
10788;DHT22;5446;50.826;4.380;2022-12-18T08:37:24;-3.00;99.90
10788;DHT22;5446;50.826;4.380;2022-12-18T08:39:50;-3.00;99.90
10788;DHT22;5446;50.826;4.380;2022-12-18T08:42:16;-2.90;99.90
10788;DHT22;5446;50.826;4.380;2022-12-18T08:45:00;-2.80;99.90
10788;DHT22;5446;50.826;4.380;2022-12-18T08:47:25;-2.80;99.90
10788;DHT22;5446;50.826;4.380;2022-12-18T08:49:51;-2.70;99.90
10788;DHT22;5446;50.826;4.380;2022-12-18T08:52:17;-2.60;99.90
10788;DHT22;5446;50.826;4.380;2022-12-18T08:54:43;-2.60;99.90
10788;DHT22;5446;50.826;4.380;2022-12-18T08:57:08;-2.60;99.90
10788;DHT22;5446;50.826;4.380;2022-12-18T08:59:34;-2.50;99.90
10788;DHT22;5446;50.826;4.380;2022-12-18T09:02:00;-2.50;99.90
10788;DHT22;5446;50.826;4.380;2022-12-18T09:04:25;-2.30;99.90
10788;DHT22;5446;50.826;4.380;2022-12-18T09:06:51;-2.30;99.90
10788;DHT22;5446;50.826;4.380;2022-12-18T09:09:17;-2.20;99.90
10788;DHT22;5446;50.826;4.380;2022-12-18T09:11:43;-2.20;99.90
10788;DHT22;5446;50.826;4.380;2022-12-18T09:14:10;-2.10;99.90
10788;DHT22;5446;50.826;4.380;2022-12-18T09:16:36;-2.10;99.90
10788;DHT22;5446;50.826;4.380;2022-12-18T09:19:03;-2.00;99.90
10788;DHT22;5446;50.826;4.380;2022-12-18T09:21:32;-2.00;99.90
10788;DHT22;5446;50.826;4.380;2022-12-18T09:23:58;-2.00;99.90
10788;DHT22;5446;50.826;4.380;2022-12-18T09:26:25;-2.00;99.90
10788;DHT22;5446;50.826;4.380;2022-12-18T09:28:51;-1.90;99.90
10788;DHT22;5446;50.826;4.380;2022-12-18T09:31:20;-1.90;99.90
10788;DHT22;5446;50.826;4.380;2022-12-18T09:33:47;-1.80;99.90
10788;DHT22;5446;50.826;4.380;2022-12-18T09:36:15;-1.80;99.90
10788;DHT22;5446;50.826;4.380;2022-12-18T09:38:42;-1.80;99.90
10788;DHT22;5446;50.826;4.380;2022-12-18T09:47:28;-1.60;99.90
10788;DHT22;5446;50.826;4.380;2022-12-18T09:50:07;-1.60;99.90
10788;DHT22;5446;50.826;4.380;2022-12-18T09:52:46;-1.50;99.90
10788;DHT22;5446;50.826;4.380;2022-12-18T09:55:28;-1.40;99.90
10788;DHT22;5446;50.826;4.380;2022-12-18T09:58:01;-1.30;99.90
10788;DHT22;5446;50.826;4.380;2022-12-18T10:00:28;-1.30;99.90
10788;DHT22;5446;50.826;4.380;2022-12-18T10:02:59;-1.20;99.90
10788;DHT22;5446;50.826;4.380;2022-12-18T10:08:18;-1.10;99.90
10788;DHT22;5446;50.826;4.380;2022-12-18T10:10:57;-1.10;99.90
10788;DHT22;5446;50.826;4.380;2022-12-18T10:13:33;-1.10;99.90
10788;DHT22;5446;50.826;4.380;2022-12-18T10:26:47;-0.70;99.90
10788;DHT22;5446;50.826;4.380;2022-12-18T10:29:14;-0.60;99.90
10788;DHT22;5446;50.826;4.380;2022-12-18T10:31:40;-0.60;99.90
10788;DHT22;5446;50.826;4.380;2022-12-18T10:34:11;-0.60;99.90
10788;DHT22;5446;50.826;4.380;2022-12-18T10:36:37;-0.60;99.90
10788;DHT22;5446;50.826;4.380;2022-12-18T10:39:23;-0.50;99.90
10788;DHT22;5446;50.826;4.380;2022-12-18T10:41:50;-0.50;99.90
10788;DHT22;5446;50.826;4.380;2022-12-18T10:44:21;-0.40;99.90
10788;DHT22;5446;50.826;4.380;2022-12-18T10:46:55;-0.30;99.90
10788;DHT22;5446;50.826;4.380;2022-12-18T10:49:30;-0.20;99.90
10788;DHT22;5446;50.826;4.380;2022-12-18T10:52:14;-0.20;99.90
10788;DHT22;5446;50.826;4.380;2022-12-18T10:59:57;0.10;99.90
10788;DHT22;5446;50.826;4.380;2022-12-18T11:02:35;0.20;99.90
10788;DHT22;5446;50.826;4.380;2022-12-18T11:05:01;0.20;99.90
10788;DHT22;5446;50.826;4.380;2022-12-18T11:07:48;0.30;99.90
10788;DHT22;5446;50.826;4.380;2022-12-18T11:10:19;0.30;99.90
10788;DHT22;5446;50.826;4.380;2022-12-18T11:12:45;0.40;99.90
10788;DHT22;5446;50.826;4.380;2022-12-18T11:15:26;0.40;99.90
10788;DHT22;5446;50.826;4.380;2022-12-18T11:17:53;0.40;99.90
10788;DHT22;5446;50.826;4.380;2022-12-18T11:20:34;0.50;99.90
10788;DHT22;5446;50.826;4.380;2022-12-18T11:23:10;0.60;99.90
10788;DHT22;5446;50.826;4.380;2022-12-18T11:25:37;0.70;99.90
10788;DHT22;5446;50.826;4.380;2022-12-18T11:28:04;0.70;99.90
10788;DHT22;5446;50.826;4.380;2022-12-18T11:30:37;0.70;99.90
10788;DHT22;5446;50.826;4.380;2022-12-18T11:33:10;0.70;99.90
10788;DHT22;5446;50.826;4.380;2022-12-18T11:35:56;0.80;99.90
10788;DHT22;5446;50.826;4.380;2022-12-18T11:38:26;0.80;99.90
10788;DHT22;5446;50.826;4.380;2022-12-18T11:43:45;0.90;99.90
10788;DHT22;5446;50.826;4.380;2022-12-18T11:46:36;1.00;99.90
10788;DHT22;5446;50.826;4.380;2022-12-18T11:49:22;1.10;99.90
10788;DHT22;5446;50.826;4.380;2022-12-18T11:51:50;1.10;99.90
10788;DHT22;5446;50.826;4.380;2022-12-18T11:54:17;1.10;99.90
10788;DHT22;5446;50.826;4.380;2022-12-18T11:56:51;1.20;99.90
10788;DHT22;5446;50.826;4.380;2022-12-18T11:59:56;1.20;99.90
10788;DHT22;5446;50.826;4.380;2022-12-18T12:13:18;1.30;99.90
10788;DHT22;5446;50.826;4.380;2022-12-18T12:16:10;1.30;99.90
10788;DHT22;5446;50.826;4.380;2022-12-18T12:21:55;1.20;99.90
10788;DHT22;5446;50.826;4.380;2022-12-18T12:27:24;1.40;99.90
10788;DHT22;5446;50.826;4.380;2022-12-18T12:33:11;1.40;99.90
10788;DHT22;5446;50.826;4.380;2022-12-18T12:40:59;1.40;99.90
10788;DHT22;5446;50.826;4.380;2022-12-18T12:43:42;1.50;99.90
10788;DHT22;5446;50.826;4.380;2022-12-18T12:46:13;1.50;99.90
10788;DHT22;5446;50.826;4.380;2022-12-18T12:48:44;1.50;99.90
10788;DHT22;5446;50.826;4.380;2022-12-18T12:51:25;1.50;99.90
10788;DHT22;5446;50.826;4.380;2022-12-18T12:53:52;1.40;99.90
10788;DHT22;5446;50.826;4.380;2022-12-18T12:56:20;1.50;99.90
10788;DHT22;5446;50.826;4.380;2022-12-18T13:04:38;1.60;99.90
10788;DHT22;5446;50.826;4.380;2022-12-18T13:07:32;1.50;99.90
10788;DHT22;5446;50.826;4.380;2022-12-18T13:16:07;1.50;99.90
10788;DHT22;5446;50.826;4.380;2022-12-18T13:18:34;1.60;99.90
10788;DHT22;5446;50.826;4.380;2022-12-18T13:25:59;1.70;99.90
10788;DHT22;5446;50.826;4.380;2022-12-18T13:33:47;1.60;99.90
10788;DHT22;5446;50.826;4.380;2022-12-18T13:41:40;1.60;99.90
10788;DHT22;5446;50.826;4.380;2022-12-18T13:46:54;1.60;99.90
10788;DHT22;5446;50.826;4.380;2022-12-18T13:49:24;1.60;99.90
10788;DHT22;5446;50.826;4.380;2022-12-18T13:51:53;1.60;99.90
10788;DHT22;5446;50.826;4.380;2022-12-18T13:54:34;1.60;99.90
10788;DHT22;5446;50.826;4.380;2022-12-18T13:57:01;1.60;99.90
10788;DHT22;5446;50.826;4.380;2022-12-18T13:59:36;1.50;99.90
10788;DHT22;5446;50.826;4.380;2022-12-18T14:02:16;1.40;99.90
10788;DHT22;5446;50.826;4.380;2022-12-18T14:04:45;1.40;99.90
10788;DHT22;5446;50.826;4.380;2022-12-18T14:07:15;1.50;99.90
10788;DHT22;5446;50.826;4.380;2022-12-18T14:09:56;1.40;99.90
10788;DHT22;5446;50.826;4.380;2022-12-18T14:12:26;1.40;99.90
10788;DHT22;5446;50.826;4.380;2022-12-18T14:17:45;1.40;99.90
10788;DHT22;5446;50.826;4.380;2022-12-18T14:20:15;1.40;99.90
10788;DHT22;5446;50.826;4.380;2022-12-18T14:22:45;1.40;99.90
10788;DHT22;5446;50.826;4.380;2022-12-18T14:25:16;1.30;99.90
10788;DHT22;5446;50.826;4.380;2022-12-18T14:27:44;1.30;99.90
10788;DHT22;5446;50.826;4.380;2022-12-18T14:30:35;1.30;99.90
10788;DHT22;5446;50.826;4.380;2022-12-18T14:33:05;1.30;99.90
10788;DHT22;5446;50.826;4.380;2022-12-18T14:35:51;1.30;99.90
10788;DHT22;5446;50.826;4.380;2022-12-18T14:43:39;1.40;99.90
10788;DHT22;5446;50.826;4.380;2022-12-18T14:46:23;1.30;99.90
10788;DHT22;5446;50.826;4.380;2022-12-18T14:48:51;1.40;99.90
10788;DHT22;5446;50.826;4.380;2022-12-18T14:51:20;1.20;99.90
10788;DHT22;5446;50.826;4.380;2022-12-18T14:54:06;1.30;99.90
10788;DHT22;5446;50.826;4.380;2022-12-18T14:56:51;1.30;99.90
10788;DHT22;5446;50.826;4.380;2022-12-18T14:59:20;1.20;99.90
10788;DHT22;5446;50.826;4.380;2022-12-18T15:07:26;1.30;99.90
10788;DHT22;5446;50.826;4.380;2022-12-18T15:10:15;1.40;99.90
10788;DHT22;5446;50.826;4.380;2022-12-18T15:12:44;1.40;99.90
10788;DHT22;5446;50.826;4.380;2022-12-18T15:20:50;1.40;99.90
10788;DHT22;5446;50.826;4.380;2022-12-18T15:26:13;1.40;99.90
10788;DHT22;5446;50.826;4.380;2022-12-18T15:28:46;1.40;99.90
10788;DHT22;5446;50.826;4.380;2022-12-18T15:33:41;1.40;99.90
10788;DHT22;5446;50.826;4.380;2022-12-18T15:36:14;1.40;99.90
10788;DHT22;5446;50.826;4.380;2022-12-18T15:38:40;1.50;99.90
10788;DHT22;5446;50.826;4.380;2022-12-18T15:41:17;1.40;99.90
10788;DHT22;5446;50.826;4.380;2022-12-18T15:43:44;1.50;99.90
10788;DHT22;5446;50.826;4.380;2022-12-18T15:46:15;1.40;99.90
10788;DHT22;5446;50.826;4.380;2022-12-18T15:48:54;1.50;99.90
10788;DHT22;5446;50.826;4.380;2022-12-18T15:51:27;1.40;99.90
10788;DHT22;5446;50.826;4.380;2022-12-18T15:53:56;1.40;99.90
10788;DHT22;5446;50.826;4.380;2022-12-18T15:56:23;1.50;99.90
10788;DHT22;5446;50.826;4.380;2022-12-18T15:59:13;1.40;99.90
10788;DHT22;5446;50.826;4.380;2022-12-18T16:01:39;1.50;99.90
10788;DHT22;5446;50.826;4.380;2022-12-18T16:04:05;1.50;99.90
10788;DHT22;5446;50.826;4.380;2022-12-18T16:06:31;1.40;99.90
10788;DHT22;5446;50.826;4.380;2022-12-18T16:08:57;1.40;99.90
10788;DHT22;5446;50.826;4.380;2022-12-18T16:11:25;1.50;99.90
10788;DHT22;5446;50.826;4.380;2022-12-18T16:14:16;1.50;99.90
10788;DHT22;5446;50.826;4.380;2022-12-18T16:16:47;1.60;99.90
10788;DHT22;5446;50.826;4.380;2022-12-18T16:19:13;1.50;99.90
10788;DHT22;5446;50.826;4.380;2022-12-18T16:21:39;1.50;99.90
10788;DHT22;5446;50.826;4.380;2022-12-18T16:24:05;1.60;99.90
10788;DHT22;5446;50.826;4.380;2022-12-18T16:26:31;1.60;99.90
10788;DHT22;5446;50.826;4.380;2022-12-18T16:28:57;1.60;99.90
10788;DHT22;5446;50.826;4.380;2022-12-18T16:31:22;1.70;99.90
10788;DHT22;5446;50.826;4.380;2022-12-18T16:33:48;1.70;99.90
10788;DHT22;5446;50.826;4.380;2022-12-18T16:36:14;1.70;99.90
10788;DHT22;5446;50.826;4.380;2022-12-18T16:38:39;1.70;99.90
10788;DHT22;5446;50.826;4.380;2022-12-18T16:41:25;1.70;99.90
10788;DHT22;5446;50.826;4.380;2022-12-18T16:43:57;1.80;99.90
10788;DHT22;5446;50.826;4.380;2022-12-18T16:46:23;1.80;99.90
10788;DHT22;5446;50.826;4.380;2022-12-18T16:48:49;1.80;99.90
10788;DHT22;5446;50.826;4.380;2022-12-18T16:51:14;1.80;99.90
10788;DHT22;5446;50.826;4.380;2022-12-18T16:53:40;1.70;99.90
10788;DHT22;5446;50.826;4.380;2022-12-18T16:56:06;1.70;99.90
10788;DHT22;5446;50.826;4.380;2022-12-18T16:58:32;1.80;99.90
10788;DHT22;5446;50.826;4.380;2022-12-18T17:00:58;1.80;99.90
10788;DHT22;5446;50.826;4.380;2022-12-18T17:03:24;1.80;99.90
10788;DHT22;5446;50.826;4.380;2022-12-18T17:05:50;1.80;99.90
10788;DHT22;5446;50.826;4.380;2022-12-18T17:08:15;1.80;99.90
10788;DHT22;5446;50.826;4.380;2022-12-18T17:10:41;1.80;99.90
10788;DHT22;5446;50.826;4.380;2022-12-18T17:13:07;1.90;99.90
10788;DHT22;5446;50.826;4.380;2022-12-18T17:15:36;1.90;99.90
10788;DHT22;5446;50.826;4.380;2022-12-18T17:18:02;1.90;99.90
10788;DHT22;5446;50.826;4.380;2022-12-18T17:20:29;1.90;99.90
10788;DHT22;5446;50.826;4.380;2022-12-18T17:22:58;2.00;99.90
10788;DHT22;5446;50.826;4.380;2022-12-18T17:25:24;2.00;99.90
10788;DHT22;5446;50.826;4.380;2022-12-18T17:27:50;2.00;99.90
10788;DHT22;5446;50.826;4.380;2022-12-18T17:30:16;1.90;99.90
10788;DHT22;5446;50.826;4.380;2022-12-18T17:32:41;1.90;99.90
10788;DHT22;5446;50.826;4.380;2022-12-18T17:35:08;1.90;99.90
10788;DHT22;5446;50.826;4.380;2022-12-18T17:37:33;1.90;99.90
10788;DHT22;5446;50.826;4.380;2022-12-18T17:39:59;1.90;99.90
10788;DHT22;5446;50.826;4.380;2022-12-18T17:42:25;1.80;99.90
10788;DHT22;5446;50.826;4.380;2022-12-18T17:44:50;1.80;99.90
10788;DHT22;5446;50.826;4.380;2022-12-18T17:47:17;1.70;99.90
10788;DHT22;5446;50.826;4.380;2022-12-18T17:49:43;1.80;99.90
10788;DHT22;5446;50.826;4.380;2022-12-18T17:52:09;1.70;99.90
10788;DHT22;5446;50.826;4.380;2022-12-18T17:54:35;1.80;99.90
10788;DHT22;5446;50.826;4.380;2022-12-18T17:57:04;1.80;99.90
10788;DHT22;5446;50.826;4.380;2022-12-18T17:59:30;1.70;99.90
10788;DHT22;5446;50.826;4.380;2022-12-18T18:01:56;1.70;99.90
10788;DHT22;5446;50.826;4.380;2022-12-18T18:04:21;1.60;99.90
10788;DHT22;5446;50.826;4.380;2022-12-18T18:06:47;1.60;99.90
10788;DHT22;5446;50.826;4.380;2022-12-18T18:09:13;1.60;99.90
10788;DHT22;5446;50.826;4.380;2022-12-18T18:11:39;1.60;99.90
10788;DHT22;5446;50.826;4.380;2022-12-18T18:14:23;1.50;99.90
10788;DHT22;5446;50.826;4.380;2022-12-18T18:16:49;1.50;99.90
10788;DHT22;5446;50.826;4.380;2022-12-18T18:19:21;1.50;99.90
10788;DHT22;5446;50.826;4.380;2022-12-18T18:21:50;1.50;99.90
10788;DHT22;5446;50.826;4.380;2022-12-18T18:24:19;1.50;99.90
10788;DHT22;5446;50.826;4.380;2022-12-18T18:26:45;1.50;99.90